createdAt,value
2023-04-29T00:01:20.242Z,6.80
2023-04-29T00:03:48.379Z,6.97
2023-04-29T00:06:17.019Z,7.14
2023-04-29T00:08:45.143Z,7.10
2023-04-29T00:11:13.180Z,6.91
2023-04-29T00:13:41.738Z,6.79
2023-04-29T00:16:11.463Z,6.83
2023-04-29T00:18:39.475Z,6.79
2023-04-29T00:21:07.644Z,6.59
2023-04-29T00:23:36.116Z,6.57
2023-04-29T00:26:04.305Z,6.76
2023-04-29T00:28:32.226Z,6.77
2023-04-29T00:31:00.154Z,6.90
2023-04-29T00:33:29.595Z,7.01
2023-04-29T00:35:57.520Z,7.05
2023-04-29T00:38:25.478Z,7.10
2023-04-29T00:40:53.547Z,6.80
2023-04-29T00:43:21.731Z,6.74
2023-04-29T00:45:50.999Z,6.72
2023-04-29T00:48:19.014Z,6.84
2023-04-29T00:50:48.365Z,7.11
2023-04-29T00:53:16.323Z,6.87
2023-04-29T00:55:45.589Z,6.82
2023-04-29T00:58:13.802Z,6.71
2023-04-29T01:00:44.177Z,6.67
2023-04-29T01:03:12.280Z,6.79
2023-04-29T01:05:40.523Z,6.92
2023-04-29T01:08:19.814Z,6.94
2023-04-29T01:10:55.576Z,7.00
2023-04-29T01:13:30.880Z,6.88
2023-04-29T01:16:03.788Z,6.54
2023-04-29T01:18:37.225Z,6.41
2023-04-29T01:21:05.440Z,6.64
2023-04-29T01:23:34.780Z,6.75
2023-04-29T01:26:03.043Z,6.83
2023-04-29T01:28:47.546Z,6.92
2023-04-29T01:31:21.082Z,6.94
2023-04-29T01:33:56.686Z,6.98
2023-04-29T01:36:35.546Z,6.95
2023-04-29T01:39:15.907Z,7.00
2023-04-29T01:41:46.341Z,6.87
2023-04-29T01:44:18.014Z,6.94
2023-04-29T01:46:52.006Z,6.78
2023-04-29T01:49:22.055Z,6.86
2023-04-29T01:51:49.956Z,6.91
2023-04-29T01:54:19.622Z,6.91
2023-04-29T01:56:47.474Z,6.56
2023-04-29T01:59:15.436Z,6.30
2023-04-29T02:01:43.785Z,6.27
2023-04-29T02:04:11.800Z,6.55
2023-04-29T02:06:39.745Z,6.44
2023-04-29T02:09:07.742Z,6.32
2023-04-29T02:11:37.181Z,6.34
2023-04-29T02:14:05.114Z,6.52
2023-04-29T02:16:33.043Z,6.25
2023-04-29T02:19:00.997Z,6.31
2023-04-29T02:21:28.861Z,6.17
2023-04-29T02:23:56.931Z,6.14
2023-04-29T02:26:24.926Z,6.19
2023-04-29T02:28:54.932Z,6.13
2023-04-29T02:31:22.874Z,6.07
2023-04-29T02:33:50.893Z,5.95
2023-04-29T02:36:18.861Z,6.01
2023-04-29T02:38:46.758Z,5.88
2023-04-29T02:41:18.165Z,5.79
2023-04-29T02:43:46.582Z,5.81
2023-04-29T02:46:16.082Z,5.83
2023-04-29T02:48:44.001Z,5.80
2023-04-29T02:51:11.958Z,5.67
2023-04-29T02:53:40.095Z,5.68
2023-04-29T02:56:08.109Z,5.91
2023-04-29T02:58:36.058Z,5.91
2023-04-29T03:01:04.966Z,5.94
2023-04-29T03:03:34.456Z,5.93
2023-04-29T03:06:02.426Z,5.76
2023-04-29T03:08:30.467Z,5.75
2023-04-29T03:10:58.797Z,5.91
2023-04-29T03:13:26.722Z,5.69
2023-04-29T03:15:54.717Z,5.54
2023-04-29T03:18:22.574Z,5.59
2023-04-29T03:20:51.834Z,5.53
2023-04-29T03:23:19.800Z,5.69
2023-04-29T03:25:47.753Z,5.65
2023-04-29T03:28:16.188Z,5.90
2023-04-29T03:30:44.093Z,5.79
2023-04-29T03:33:12.050Z,5.72
2023-04-29T03:35:39.974Z,5.53
2023-04-29T03:38:09.302Z,5.60
2023-04-29T03:40:37.221Z,5.66
2023-04-29T03:43:05.172Z,5.86
2023-04-29T03:45:33.110Z,5.68
2023-04-29T03:48:01.263Z,5.61
2023-04-29T03:50:29.296Z,5.72
2023-04-29T03:52:57.853Z,5.82
2023-04-29T03:55:27.315Z,5.99
2023-04-29T03:57:55.399Z,6.08
2023-04-29T04:00:24.057Z,6.21
2023-04-29T04:02:52.149Z,6.30
2023-04-29T04:05:21.118Z,6.40
2023-04-29T04:07:49.288Z,6.60
2023-04-29T04:10:17.457Z,6.69
2023-04-29T04:12:47.286Z,6.75
2023-04-29T04:15:15.392Z,6.78
2023-04-29T04:17:43.323Z,6.83
2023-04-29T04:20:13.290Z,6.79
2023-04-29T04:22:41.188Z,6.64
2023-04-29T04:25:10.460Z,6.44
2023-04-29T04:27:38.363Z,6.61
2023-04-29T04:30:09.098Z,6.62
2023-04-29T04:32:37.013Z,6.77
2023-04-29T04:35:05.363Z,6.69
2023-04-29T04:37:33.750Z,6.79
2023-04-29T04:40:01.622Z,6.88
2023-04-29T04:42:29.535Z,6.84
2023-04-29T04:44:57.465Z,6.95
2023-04-29T04:47:26.883Z,7.19
2023-04-29T04:49:55.100Z,7.24
2023-04-29T04:52:23.626Z,7.20
2023-04-29T04:54:51.654Z,7.29
2023-04-29T04:57:19.568Z,7.30
2023-04-29T04:59:47.559Z,7.36
2023-04-29T05:02:15.488Z,7.44
2023-04-29T05:04:44.850Z,7.41
2023-04-29T05:07:12.931Z,7.44
2023-04-29T05:09:40.905Z,7.58
2023-04-29T05:12:08.816Z,7.67
2023-04-29T05:14:36.711Z,7.61
2023-04-29T05:17:04.666Z,7.73
2023-04-29T05:19:32.567Z,7.84
2023-04-29T05:22:01.886Z,8.04
2023-04-29T05:24:30.437Z,8.12
2023-04-29T05:26:58.407Z,8.06
2023-04-29T05:29:27.316Z,8.05
2023-04-29T05:31:55.252Z,8.27
2023-04-29T05:34:23.206Z,8.17
2023-04-29T05:36:51.071Z,8.37
2023-04-29T05:39:20.545Z,8.55
2023-04-29T05:41:48.452Z,8.84
2023-04-29T05:44:16.364Z,8.84
2023-04-29T05:46:44.566Z,8.75
2023-04-29T05:49:12.618Z,8.76
2023-04-29T05:51:40.490Z,9.53
2023-04-29T05:54:08.384Z,10.90
2023-04-29T05:56:37.758Z,12.22
2023-04-29T05:59:05.712Z,12.94
2023-04-29T06:01:34.031Z,13.01
2023-04-29T06:04:02.296Z,13.94
2023-04-29T06:06:30.510Z,14.60
2023-04-29T06:08:58.521Z,13.81
2023-04-29T06:11:26.852Z,12.97
2023-04-29T06:13:56.200Z,12.38
2023-04-29T06:16:24.951Z,11.13
2023-04-29T06:18:52.830Z,10.84
2023-04-29T06:21:20.804Z,10.76
2023-04-29T06:23:48.875Z,10.65
2023-04-29T06:26:16.790Z,10.84
2023-04-29T06:28:44.763Z,10.88
2023-04-29T06:31:14.430Z,10.99
2023-04-29T06:33:42.427Z,10.84
2023-04-29T06:36:10.320Z,11.09
2023-04-29T06:38:38.396Z,11.06
2023-04-29T06:41:06.424Z,11.39
2023-04-29T06:43:34.312Z,11.81
2023-04-29T06:46:02.238Z,12.29
2023-04-29T06:48:31.510Z,12.81
2023-04-29T06:51:00.007Z,13.20
2023-04-29T06:53:28.162Z,13.02
2023-04-29T06:55:56.041Z,12.92
2023-04-29T06:58:23.954Z,12.48
2023-04-29T07:00:52.736Z,12.25
2023-04-29T07:03:20.720Z,12.17
2023-04-29T07:05:50.150Z,12.41
2023-04-29T07:08:18.076Z,12.51
2023-04-29T07:10:45.984Z,12.30
2023-04-29T07:13:13.926Z,12.03
2023-04-29T07:15:42.289Z,12.21
2023-04-29T07:18:10.491Z,12.20
2023-04-29T07:20:38.536Z,12.40
2023-04-29T07:23:07.843Z,12.02
2023-04-29T07:25:36.010Z,12.03
2023-04-29T07:28:04.201Z,11.93
2023-04-29T07:30:32.351Z,12.12
2023-04-29T07:33:00.487Z,12.53
2023-04-29T07:35:28.710Z,12.49
2023-04-29T07:37:57.244Z,12.28
2023-04-29T07:40:26.710Z,12.13
2023-04-29T07:42:54.688Z,11.85
2023-04-29T07:45:22.574Z,12.02
2023-04-29T07:47:50.543Z,12.22
2023-04-29T07:50:18.607Z,12.44
2023-04-29T07:52:46.492Z,12.37
2023-04-29T07:55:14.544Z,12.53
2023-04-29T07:57:43.793Z,12.67
2023-04-29T08:00:12.448Z,12.89
2023-04-29T08:02:40.618Z,12.65
2023-04-29T08:05:09.368Z,12.64
2023-04-29T08:07:37.604Z,12.92
2023-04-29T08:10:06.279Z,13.12
2023-04-29T08:12:34.311Z,12.93
2023-04-29T08:15:04.854Z,12.92
2023-04-29T08:17:32.883Z,12.89
2023-04-29T08:20:00.863Z,13.03
2023-04-29T08:22:28.791Z,12.82
2023-04-29T08:24:57.679Z,12.83
2023-04-29T08:27:25.750Z,13.06
2023-04-29T08:29:53.758Z,13.10
2023-04-29T08:32:23.728Z,13.21
2023-04-29T08:34:51.899Z,13.60
2023-04-29T08:37:20.774Z,14.09
2023-04-29T08:39:49.100Z,14.43
2023-04-29T08:42:22.307Z,14.35
2023-04-29T08:44:51.918Z,14.73
2023-04-29T08:47:20.077Z,14.88
2023-04-29T08:49:49.530Z,14.86
2023-04-29T08:52:17.539Z,15.33
2023-04-29T08:54:45.500Z,15.46
2023-04-29T08:57:14.566Z,15.73
2023-04-29T08:59:43.451Z,15.53
2023-04-29T09:02:17.218Z,15.36
2023-04-29T09:04:54.437Z,15.79
2023-04-29T09:07:23.157Z,15.82
2023-04-29T09:09:52.866Z,15.91
2023-04-29T09:12:21.145Z,16.08
2023-04-29T09:14:49.081Z,15.89
2023-04-29T09:17:18.313Z,16.16
2023-04-29T09:19:46.359Z,16.25
2023-04-29T09:22:16.221Z,15.40
2023-04-29T09:24:45.666Z,15.13
2023-04-29T09:27:29.015Z,14.94
2023-04-29T09:30:02.432Z,15.59
2023-04-29T09:32:30.491Z,15.47
2023-04-29T09:34:58.357Z,15.67
2023-04-29T09:37:28.857Z,15.64
2023-04-29T09:39:56.848Z,16.17
2023-04-29T09:42:24.839Z,17.46
2023-04-29T09:44:54.614Z,18.29
2023-04-29T09:47:31.326Z,18.76
2023-04-29T09:50:13.689Z,18.34
2023-04-29T09:52:43.296Z,17.23
2023-04-29T09:55:12.723Z,17.44
2023-04-29T09:57:44.265Z,16.38
2023-04-29T10:00:14.691Z,15.82
2023-04-29T10:02:44.115Z,15.89
2023-04-29T10:05:13.387Z,16.33
2023-04-29T10:07:43.851Z,16.23
2023-04-29T10:10:13.724Z,16.34
2023-04-29T10:12:42.362Z,16.74
2023-04-29T10:15:21.820Z,16.88
2023-04-29T10:17:53.997Z,16.97
2023-04-29T10:20:24.373Z,16.93
2023-04-29T10:22:56.536Z,16.84
2023-04-29T10:25:26.354Z,16.61
2023-04-29T10:27:54.205Z,16.76
2023-04-29T10:30:23.083Z,16.33
2023-04-29T10:32:52.906Z,16.19
2023-04-29T10:35:25.765Z,16.18
2023-04-29T10:37:57.317Z,16.46
2023-04-29T10:40:32.360Z,16.80
2023-04-29T10:43:00.931Z,17.26
2023-04-29T10:45:31.817Z,17.83
2023-04-29T10:48:16.400Z,18.00
2023-04-29T10:51:08.188Z,18.09
2023-04-29T10:53:38.385Z,18.40
2023-04-29T10:56:09.719Z,18.52
2023-04-29T10:58:45.458Z,18.48
2023-04-29T11:01:15.295Z,18.14
2023-04-29T11:03:48.320Z,17.48
2023-04-29T11:06:16.688Z,18.14
2023-04-29T11:08:45.965Z,17.91
2023-04-29T11:11:15.559Z,17.69
2023-04-29T11:13:47.318Z,17.56
2023-04-29T11:16:15.511Z,18.02
2023-04-29T11:19:07.952Z,18.01
2023-04-29T11:21:36.690Z,18.17
2023-04-29T11:24:07.865Z,18.40
2023-04-29T11:26:36.124Z,18.66
2023-04-29T11:29:04.177Z,19.11
2023-04-29T11:31:33.110Z,18.73
2023-04-29T11:34:01.546Z,19.15
2023-04-29T11:36:29.572Z,18.73
2023-04-29T11:38:57.473Z,18.83
2023-04-29T11:41:27.678Z,18.96
2023-04-29T11:43:59.708Z,19.23
2023-04-29T11:46:28.912Z,19.36
2023-04-29T11:48:59.957Z,19.17
2023-04-29T11:51:28.631Z,19.05
2023-04-29T11:53:57.777Z,19.33
2023-04-29T11:56:27.636Z,19.34
2023-04-29T11:58:57.346Z,19.29
2023-04-29T12:01:26.960Z,19.21
2023-04-29T12:04:01.156Z,19.40
2023-04-29T12:06:30.933Z,19.54
2023-04-29T12:09:00.825Z,19.71
2023-04-29T12:11:30.154Z,19.33
2023-04-29T12:13:58.533Z,19.23
2023-04-29T12:16:29.393Z,19.56
2023-04-29T12:18:58.722Z,19.68
2023-04-29T12:21:27.547Z,19.58
2023-04-29T12:23:55.643Z,19.09
2023-04-29T12:26:24.924Z,18.83
2023-04-29T12:28:59.180Z,18.83
2023-04-29T12:31:34.773Z,19.03
2023-04-29T12:34:06.843Z,18.87
2023-04-29T12:36:37.758Z,18.72
2023-04-29T12:39:08.422Z,18.86
2023-04-29T12:41:42.680Z,18.44
2023-04-29T12:44:12.388Z,18.19
2023-04-29T12:46:41.883Z,18.24
2023-04-29T12:49:09.943Z,18.78
2023-04-29T12:51:37.898Z,19.20
2023-04-29T12:54:07.351Z,19.43
2023-04-29T12:56:35.468Z,19.28
2023-04-29T12:59:08.180Z,19.42
2023-04-29T13:01:37.703Z,19.36
2023-04-29T13:04:09.010Z,19.38
2023-04-29T13:06:39.613Z,18.95
2023-04-29T13:09:17.474Z,18.58
2023-04-29T13:11:46.560Z,18.45
2023-04-29T13:14:14.479Z,18.38
2023-04-29T13:16:44.611Z,18.65
2023-04-29T13:19:28.157Z,18.70
2023-04-29T13:22:00.597Z,18.88
2023-04-29T13:24:28.556Z,19.00
2023-04-29T13:26:56.515Z,19.12
2023-04-29T13:29:24.515Z,19.22
2023-04-29T13:31:53.808Z,19.31
2023-04-29T13:34:21.816Z,19.34
2023-04-29T13:36:49.824Z,19.29
2023-04-29T13:39:17.738Z,18.86
2023-04-29T13:41:46.403Z,18.81
2023-04-29T13:44:27.363Z,18.90
2023-04-29T13:47:02.775Z,18.68
2023-04-29T13:52:54.251Z,18.11
2023-04-29T13:55:21.764Z,18.25
2023-04-29T13:58:31.085Z,17.96
2023-04-29T14:05:33.556Z,18.53
2023-04-29T14:08:01.867Z,18.33
2023-04-29T14:10:29.923Z,18.36
2023-04-29T14:12:57.796Z,18.33
2023-04-29T14:15:25.933Z,18.29
2023-04-29T14:17:55.202Z,18.50
2023-04-29T14:20:24.748Z,18.45
2023-04-29T14:22:53.141Z,18.69
2023-04-29T14:25:21.117Z,18.82
2023-04-29T14:27:49.324Z,18.78
2023-04-29T14:30:17.285Z,18.68
2023-04-29T14:32:45.457Z,18.69
2023-04-29T14:35:13.413Z,18.87
2023-04-29T14:37:42.718Z,18.85
2023-04-29T14:40:11.048Z,19.03
2023-04-29T14:42:38.965Z,19.03
2023-04-29T14:45:08.057Z,19.13
2023-04-29T14:47:36.068Z,19.14
2023-04-29T14:50:04.348Z,19.01
2023-04-29T14:52:32.300Z,18.74
2023-04-29T14:55:01.584Z,18.47
2023-04-29T14:57:30.047Z,18.16
2023-04-29T14:59:58.065Z,18.33
2023-04-29T15:02:26.417Z,18.45
2023-04-29T15:04:54.573Z,18.34
2023-04-29T15:07:22.985Z,18.46
2023-04-29T15:09:50.977Z,18.38
2023-04-29T15:12:21.225Z,18.44
2023-04-29T15:14:49.144Z,18.48
2023-04-29T15:17:17.185Z,18.30
2023-04-29T15:19:45.124Z,18.38
2023-04-29T15:22:13.075Z,18.38
2023-04-29T15:24:40.952Z,18.21
2023-04-29T15:27:08.859Z,18.26
2023-04-29T15:29:38.620Z,18.17
2023-04-29T15:32:07.218Z,17.98
2023-04-29T15:34:35.270Z,18.15
2023-04-29T15:37:03.388Z,18.19
2023-04-29T15:39:31.242Z,18.00
2023-04-29T15:42:00.349Z,17.97
2023-04-29T15:44:28.376Z,18.12
2023-04-29T15:46:57.646Z,18.27
2023-04-29T15:49:25.667Z,18.15
2023-04-29T15:51:53.565Z,18.10
2023-04-29T15:54:21.469Z,18.21
2023-04-29T15:56:49.370Z,18.24
2023-04-29T15:59:17.409Z,18.29
2023-04-29T16:01:45.369Z,18.08
2023-04-29T16:04:14.670Z,18.18
2023-04-29T16:06:42.600Z,18.12
2023-04-29T16:09:12.189Z,18.15
2023-04-29T16:11:40.242Z,18.13
2023-04-29T16:14:08.293Z,18.17
2023-04-29T16:16:36.282Z,18.20
2023-04-29T16:19:04.403Z,18.21
2023-04-29T16:21:34.120Z,18.17
2023-04-29T16:24:02.069Z,18.16
2023-04-29T16:26:30.300Z,18.11
2023-04-29T16:28:58.173Z,18.09
2023-04-29T16:31:26.256Z,18.04
2023-04-29T16:33:57.054Z,18.05
2023-04-29T16:36:25.098Z,18.08
2023-04-29T16:38:55.109Z,18.05
2023-04-29T16:41:24.113Z,18.05
2023-04-29T16:43:52.090Z,17.99
2023-04-29T16:46:20.120Z,17.97
2023-04-29T16:48:50.835Z,18.02
2023-04-29T16:51:19.009Z,18.00
2023-04-29T16:53:46.952Z,18.00
2023-04-29T16:56:16.319Z,17.97
2023-04-29T16:58:44.326Z,17.97
2023-04-29T17:01:12.473Z,17.92
2023-04-29T17:03:40.616Z,17.84
2023-04-29T17:06:08.742Z,17.83
2023-04-29T17:08:36.872Z,17.77
2023-04-29T17:11:06.306Z,17.74
2023-04-29T17:13:35.664Z,17.76
2023-04-29T17:16:03.803Z,17.75
2023-04-29T17:18:31.857Z,17.72
2023-04-29T17:21:00.695Z,17.67
2023-04-29T17:23:28.738Z,17.55
2023-04-29T17:25:57.164Z,17.41
2023-04-29T17:28:25.428Z,17.22
2023-04-29T17:30:59.650Z,17.23
2023-04-29T17:33:33.870Z,17.17
2023-04-29T17:36:02.311Z,16.99
2023-04-29T17:38:30.748Z,16.89
2023-04-29T17:40:58.696Z,16.84
2023-04-29T17:43:27.287Z,16.84
2023-04-29T17:45:59.436Z,16.85
2023-04-29T17:48:27.485Z,16.97
2023-04-29T17:50:55.588Z,17.02
2023-04-29T17:53:23.444Z,17.11
2023-04-29T17:55:51.447Z,17.15
2023-04-29T17:58:19.388Z,17.16
2023-04-29T18:00:47.371Z,17.17
2023-04-29T18:03:16.802Z,17.18
2023-04-29T18:05:46.384Z,17.17
2023-04-29T18:08:14.505Z,17.15
2023-04-29T18:10:42.455Z,17.19
2023-04-29T18:13:10.365Z,17.21
2023-04-29T18:15:38.306Z,17.19
2023-04-29T18:18:06.457Z,17.13
2023-04-29T18:20:36.354Z,17.12
2023-04-29T18:23:04.255Z,17.00
2023-04-29T18:25:32.298Z,16.97
2023-04-29T18:28:18.967Z,17.02
2023-04-29T18:30:48.645Z,17.02
2023-04-29T18:33:16.619Z,17.02
2023-04-29T18:35:46.057Z,16.99
2023-04-29T18:38:17.310Z,16.99
2023-04-29T18:40:45.774Z,16.90
2023-04-29T18:43:17.220Z,16.82
2023-04-29T18:45:45.753Z,16.80
2023-04-29T18:48:15.044Z,16.48
2023-04-29T18:50:43.418Z,16.42
2023-04-29T18:53:13.498Z,16.28
2023-04-29T18:55:41.409Z,16.41
2023-04-29T18:58:09.415Z,16.34
2023-04-29T19:00:37.383Z,16.36
2023-04-29T19:03:05.874Z,16.33
2023-04-29T19:05:34.093Z,16.42
2023-04-29T19:08:02.069Z,16.53
2023-04-29T19:10:31.498Z,16.57
2023-04-29T19:12:59.416Z,16.61
2023-04-29T19:15:27.967Z,16.56
2023-04-29T19:17:56.213Z,16.24
2023-04-29T19:20:24.231Z,15.76
2023-04-29T19:22:52.371Z,15.55
2023-04-29T19:25:20.568Z,15.49
2023-04-29T19:27:51.085Z,15.50
2023-04-29T19:30:19.168Z,15.25
2023-04-29T19:32:47.627Z,15.29
2023-04-29T19:35:15.651Z,15.24
2023-04-29T19:37:44.352Z,15.20
2023-04-29T19:40:12.980Z,15.37
2023-04-29T19:42:41.316Z,15.22
2023-04-29T19:45:12.646Z,15.10
2023-04-29T19:47:40.788Z,15.14
2023-04-29T19:50:09.724Z,15.07
2023-04-29T19:52:37.688Z,14.90
2023-04-29T19:55:06.323Z,14.96
2023-04-29T19:57:35.446Z,15.06
2023-04-29T20:00:04.604Z,15.04
2023-04-29T20:02:34.000Z,15.13
2023-04-29T20:05:02.009Z,14.98
2023-04-29T20:07:29.938Z,15.01
2023-04-29T20:09:57.857Z,15.01
2023-04-29T20:12:26.454Z,15.06
2023-04-29T20:14:54.431Z,15.11
2023-04-29T20:17:22.299Z,15.30
2023-04-29T20:19:51.923Z,15.37
2023-04-29T20:22:20.050Z,15.44
2023-04-29T20:24:47.959Z,15.44
2023-04-29T20:27:15.941Z,15.45
2023-04-29T20:29:44.324Z,15.40
2023-04-29T20:32:12.324Z,15.33
2023-04-29T20:34:40.422Z,15.31
2023-04-29T20:37:09.946Z,15.35
2023-04-29T20:39:37.942Z,15.33
2023-04-29T20:42:06.115Z,15.22
2023-04-29T20:44:34.768Z,15.16
2023-04-29T20:47:03.709Z,15.22
2023-04-29T20:49:31.660Z,15.25
2023-04-29T20:51:59.725Z,15.20
2023-04-29T20:54:29.062Z,15.20
2023-04-29T20:56:56.979Z,15.18
2023-04-29T20:59:24.936Z,15.10
2023-04-29T21:01:52.844Z,15.15
2023-04-29T21:04:21.205Z,15.08
2023-04-29T21:06:52.690Z,14.96
2023-04-29T21:09:21.441Z,14.87
2023-04-29T21:11:51.184Z,14.94
2023-04-29T21:14:19.064Z,15.10
2023-04-29T21:16:47.038Z,15.00
2023-04-29T21:19:14.988Z,15.06
2023-04-29T21:21:43.804Z,15.11
2023-04-29T21:24:11.751Z,14.98
2023-04-29T21:26:39.860Z,14.99
2023-04-29T21:29:09.299Z,14.91
2023-04-29T21:31:37.341Z,14.81
2023-04-29T21:34:06.166Z,14.88
2023-04-29T21:36:34.126Z,14.89
2023-04-29T21:39:02.030Z,14.77
2023-04-29T21:41:31.985Z,14.77
2023-04-29T21:44:01.575Z,14.47
2023-04-29T21:46:33.309Z,14.68
2023-04-29T21:49:02.171Z,14.68
2023-04-29T21:51:31.776Z,14.80
2023-04-29T21:53:59.704Z,14.72
2023-04-29T21:56:27.737Z,14.70
2023-04-29T21:58:55.574Z,14.68
2023-04-29T22:01:48.097Z,14.51
2023-04-29T22:04:17.678Z,14.35
2023-04-29T22:06:46.080Z,14.40
2023-04-29T22:09:14.494Z,14.39
2023-04-29T22:11:42.454Z,14.29
2023-04-29T22:14:10.337Z,14.21
2023-04-29T22:16:38.424Z,14.20
2023-04-29T22:19:07.220Z,14.17
2023-04-29T22:21:38.158Z,14.21
2023-04-29T22:24:06.696Z,13.99
2023-04-29T22:26:34.642Z,14.18
2023-04-29T22:29:02.681Z,14.15
2023-04-29T22:31:30.658Z,13.99
2023-04-29T22:33:58.523Z,14.07
2023-04-29T22:36:27.387Z,14.10
2023-04-29T22:38:56.645Z,14.13
2023-04-29T22:41:24.588Z,14.07
2023-04-29T22:43:57.142Z,14.13
2023-04-29T22:46:25.568Z,14.15
2023-04-29T22:48:53.628Z,14.21
2023-04-29T22:51:21.583Z,14.26
2023-04-29T22:53:49.586Z,14.14
2023-04-29T22:56:18.864Z,14.01
2023-04-29T22:58:46.734Z,13.90
2023-04-29T23:01:14.753Z,13.93
2023-04-29T23:03:42.722Z,13.77
2023-04-29T23:06:10.713Z,13.55
2023-04-29T23:08:38.656Z,13.33
2023-04-29T23:11:06.655Z,13.56
2023-04-29T23:13:35.961Z,13.67
2023-04-29T23:16:03.947Z,13.45
2023-04-29T23:18:32.024Z,13.25
2023-04-29T23:21:00.036Z,13.13
2023-04-29T23:23:28.321Z,12.92
2023-04-29T23:25:56.246Z,13.02
2023-04-29T23:28:24.946Z,12.87
2023-04-29T23:30:54.567Z,12.67
2023-04-29T23:33:22.582Z,12.59
2023-04-29T23:35:51.031Z,12.54
2023-04-29T23:38:19.678Z,12.58
2023-04-29T23:40:48.120Z,12.81
2023-04-29T23:43:16.144Z,12.99
2023-04-29T23:45:45.779Z,13.11
2023-04-29T23:48:16.146Z,13.03
2023-04-29T23:50:44.077Z,12.93
2023-04-29T23:53:11.991Z,12.58
2023-04-29T23:55:39.967Z,12.40
2023-04-29T23:58:08.649Z,12.37
